North Platte, Nebraska
Current Conditions -  °F | °C
As of 7:53 AM on Wednesday 28 Jan 2015 (Local Time) from KLBF Reporting Station
Clear Clear  
Wind Chill: 23°   Ceiling: Unl
Heat Index: 30°   Visibility: 10mi
Dew Point: 26°   Wind: 7mph
Humidity: 85%   Direction: 330°NNW
Pressure: 29.86"   Gusts: NA
Location:  41.14°N, 100.76°W
Report Text: KLBF 281353Z AUTO 33006KT 10SM CLR M01/M03 A2986 RMK AO2 SLP129 T10111033 $
Loading
Personal Weather Stations






























Interactive Weather Map New forecast layout! Learn more

10-Day Weather Forecast

Advertisements
Track Severe Weather on mobile